Time;durP1;ratioP1;P1;durP2;ratioP2;P2;SDS_P1;SDS_P2;PMS_P1;PMS_P2;Temp;Humidity;BMP_temperature;BMP_pressure;BME280_temperature;BME280_humidity;BME280_pressure;Samples;Min_cycle;Max_cycle;Signal;HPM_P1;HPM_P2
2023/04/02 00:00:09;;;;;;;;;;;;;;;;;;;;;
2023/04/02 00:07:58;;;;;;;9.10;7.80;;;;;;;4.74;100.00;99845.91;103446;1278;69115;-60
2023/04/02 00:15:24;;;;;;;;;;;;;;;;;;;;;
2023/04/02 00:19:36;;;;;;;10.80;8.90;;;;;;;4.69;100.00;99860.04;102227;1291;69268;-60
2023/04/02 00:22:56;;;;;;;;;;;;;;;;;;;;;
2023/04/02 00:26:35;;;;;;;;;;;;;;;;;;;;;
2023/04/02 00:34:28;;;;;;;;;;;;;;;;;;;;;
2023/04/02 00:38:29;;;;;;;8.10;6.80;;;;;;;4.60;100.00;99886.69;101607;1296;69291;-63
2023/04/02 00:53:22;;;;;;;9.00;6.60;;;;;;;4.40;100.00;99903.02;101925;1299;74103;-63
2023/04/02 01:17:27;;;;;;;;;;;;;;;;;;;;;
2023/04/02 01:32:47;;;;;;;9.30;6.80;;;;;;;3.94;100.00;99946.23;103364;1280;69381;-63
2023/04/02 01:36:29;;;;;;;9.40;6.90;;;;;;;3.89;100.00;99953.58;103420;1284;69184;-63
2023/04/02 01:40:30;;;;;;;10.30;7.60;;;;;;;3.84;100.00;99959.70;103262;1280;72628;-60
2023/04/02 01:48:36;;;;;;;;;;;;;;;;;;;;;
2023/04/02 01:52:06;;;;;;;9.60;6.90;;;;;;;3.71;100.00;99978.06;102364;1295;69272;-60
2023/04/02 01:59:49;;;;;;;;;;;;;;;;;;;;;
2023/04/02 02:07:04;;;;;;;;;;;;;;;;;;;;;
2023/04/02 02:26:34;;;;;;;10.90;8.50;;;;;;;3.33;100.00;100035.63;104393;1272;69155;-64
2023/04/02 02:34:11;;;;;;;10.10;7.50;;;;;;;3.19;100.00;100042.52;104597;1270;72481;-62
2023/04/02 02:37:55;;;;;;;10.80;8.10;;;;;;;3.18;100.00;100052.23;100102;1273;83697;-65
2023/04/02 02:41:41;;;;;;;;;;;;;;;;;;;;;
2023/04/02 02:45:33;;;;;;;11.10;8.20;;;;;;;3.19;100.00;100057.23;103483;1280;69377;-62
2023/04/02 02:49:23;;;;;;;11.60;7.60;;;;;;;3.21;100.00;100063.23;103297;1286;72182;-60
2023/04/02 02:52:56;;;;;;;11.20;8.10;;;;;;;3.23;100.00;100063.39;105266;1280;82659;-58
2023/04/02 02:56:47;;;;;;;11.00;7.40;;;;;;;3.24;100.00;100065.79;103017;1287;73875;-61
2023/04/02 03:00:39;;;;;;;11.60;7.70;;;;;;;3.26;100.00;100071.10;103096;1286;69473;-60
2023/04/02 03:16:43;;;;;;;10.60;6.60;;;;;;;3.35;100.00;100093.79;101733;1298;604961;-63
2023/04/02 03:36:42;;;;;;;11.20;6.00;;;;;;;3.36;100.00;100120.89;102090;1292;601104;-63
2023/04/02 03:40:38;;;;;;;9.20;6.10;;;;;;;3.35;100.00;100129.89;103592;1283;69312;-62
2023/04/02 04:00:22;;;;;;;8.50;5.70;;;;;;;3.36;100.00;100167.88;102171;1291;600430;-64
2023/04/02 04:04:24;;;;;;;9.10;6.40;;;;;;;3.35;100.00;100174.11;103660;1281;69303;-62
2023/04/02 04:08:16;;;;;;;8.70;5.40;;;;;;;3.33;100.00;100181.55;102886;1287;69956;-62
2023/04/02 04:12:11;;;;;;;9.20;5.20;;;;;;;3.32;100.00;100190.36;102999;1285;72513;-63
2023/04/02 04:16:01;;;;;;;8.20;5.10;;;;;;;3.30;100.00;100192.46;99345;1285;84038;-63
2023/04/02 04:19:50;;;;;;;8.20;5.30;;;;;;;3.29;100.00;100201.45;103265;1287;69263;-62
2023/04/02 04:23:38;;;;;;;;;;;;;;;;;;;;;
2023/04/02 04:35:45;;;;;;;7.50;4.70;;;;;;;3.35;100.00;100232.81;101664;1299;602658;-64
2023/04/02 04:39:34;;;;;;;8.40;4.80;;;;;;;3.35;100.00;100239.73;104177;1273;69373;-66
2023/04/02 04:43:24;;;;;;;6.30;4.10;;;;;;;3.35;100.00;100250.44;103756;1282;69206;-63
2023/04/02 04:47:19;;;;;;;7.50;4.70;;;;;;;3.36;100.00;100255.27;103728;1279;71490;-66
2023/04/02 04:51:11;;;;;;;7.20;5.00;;;;;;;3.36;100.00;100257.52;99800;1274;82976;-64
2023/04/02 04:54:52;;;;;;;;;;;;;;;;;;;;;
2023/04/02 05:02:54;;;;;;;21.70;8.80;;;;;;;3.40;100.00;100275.61;103312;1287;70787;-62
2023/04/02 05:06:46;;;;;;;16.70;8.00;;;;;;;3.39;100.00;100277.17;102246;1307;84268;-62
2023/04/02 05:10:38;;;;;;;;;;;;;;;;;;;;;
2023/04/02 05:14:58;;;;;;;16.70;9.00;;;;;;;3.42;100.00;100290.80;101040;1311;69451;-62
2023/04/02 05:18:05;;;;;;;;;;;;;;;;;;;;;
2023/04/02 05:21:47;;;;;;;10.20;5.30;;;;;;;3.39;100.00;100310.87;100743;1316;73397;-58
2023/04/02 05:25:59;;;;;;;;;;;;;;;;;;;;;
2023/04/02 05:29:38;;;;;;;11.90;7.10;;;;;;;3.42;100.00;100319.98;104463;1274;69154;-60
2023/04/02 05:33:16;;;;;;;;;;;;;;;;;;;;;
2023/04/02 05:40:27;;;;;;;8.60;4.60;;;;;;;3.39;100.00;100337.80;100513;1269;81879;-57
2023/04/02 05:43:49;;;;;;;;;;;;;;;;;;;;;
2023/04/02 05:47:17;;;;;;;;;;;;;;;;;;;;;
2023/04/02 05:50:42;;;;;;;;;;;;;;;;;;;;;
2023/04/02 05:54:23;;;;;;;9.40;5.20;;;;;;;3.37;100.00;100364.93;104380;1273;84390;-59
2023/04/02 05:58:00;;;;;;;;;;;;;;;;;;;;;
2023/04/02 06:02:17;;;;;;;5.00;4.00;;;;;;;3.36;100.00;100372.89;103745;1280;69256;-60
2023/04/02 06:06:03;;;;;;;;;;;;;;;;;;;;;
2023/04/02 06:10:02;;;;;;;7.30;4.70;;;;;;;3.38;100.00;100393.77;102974;1284;73539;-58
2023/04/02 06:13:43;;;;;;;7.90;4.60;;;;;;;3.39;100.00;100402.59;103122;1286;83544;-60
2023/04/02 06:16:50;;;;;;;;;;;;;;;;;;;;;
2023/04/02 06:20:23;;;;;;;6.40;3.50;;;;;;;3.35;99.86;100409.16;102783;1287;69169;-61
2023/04/02 06:24:13;;;;;;;5.20;3.60;;;;;;;3.31;99.44;100415.41;102526;1287;69141;-61
2023/04/02 06:27:55;;;;;;;;;;;;;;;;;;;;;
2023/04/02 06:31:03;;;;;;;;;;;;;;;;;;;;;
2023/04/02 06:34:44;;;;;;;5.00;2.90;;;;;;;3.26;99.21;100425.29;103369;1287;74798;-60
2023/04/02 06:38:11;;;;;;;3.50;2.60;;;;;;;3.26;99.38;100427.89;104460;1269;69296;-60
2023/04/02 06:42:04;;;;;;;5.20;3.20;;;;;;;3.23;99.15;100435.50;104578;1268;69150;-60
2023/04/02 06:45:40;;;;;;;;;;;;;;;;;;;;;
2023/04/02 06:49:23;;;;;;;4.30;2.40;;;;;;;3.18;98.98;100443.98;104820;1265;82541;-66
2023/04/02 06:53:13;;;;;;;2.90;2.00;;;;;;;3.18;99.15;100450.73;104367;1265;72874;-63
2023/04/02 06:56:56;;;;;;;;;;;;;;;;;;;;;
2023/04/02 07:00:47;;;;;;;;;;;;;;;;;;;;;
2023/04/02 07:04:38;;;;;;;;;;;;;;;;;;;;;
2023/04/02 07:08:02;;;;;;;4.10;2.40;;;;;;;3.32;99.20;100474.30;104121;1274;84346;-62
2023/04/02 07:11:54;;;;;;;3.70;2.30;;;;;;;3.35;98.94;100475.32;104299;1270;73503;-62
2023/04/02 07:15:41;;;;;;;;;;;;;;;;;;;;;
2023/04/02 07:19:28;;;;;;;;;;;;;;;;;;;;;
2023/04/02 07:23:20;;;;;;;6.20;3.20;;;;;;;3.43;98.69;100494.27;103781;1273;74096;-64
2023/04/02 07:42:15;;;;;;;;;;;;;;;;;;;;;
2023/04/02 07:46:00;;;;;;;;;;;;;;;;;;;;;
2023/04/02 08:05:00;;;;;;;13.80;6.90;;;;;;;3.95;97.04;100558.38;102751;1288;82843;-64
2023/04/02 08:23:48;;;;;;;12.00;6.70;;;;;;;3.96;96.21;100592.77;101678;1295;602657;-62
2023/04/02 08:27:37;;;;;;;8.50;4.40;;;;;;;3.93;95.81;100602.82;104518;1269;69201;-62
2023/04/02 08:31:23;;;;;;;;;;;;;;;;;;;;;
2023/04/02 08:35:02;;;;;;;10.50;4.70;;;;;;;3.89;95.54;100614.79;104834;1263;72305;-62
2023/04/02 08:38:51;;;;;;;8.40;5.60;;;;;;;3.90;95.59;100613.73;103171;1260;81715;-65
2023/04/02 08:42:58;;;;;;;7.10;3.90;;;;;;;3.94;95.69;100620.10;104932;1259;73649;-63
2023/04/02 08:46:40;;;;;;;3.80;1.80;;;;;;;4.02;95.53;100618.84;104800;1265;69329;-61
2023/04/02 08:50:56;;;;;;;8.20;3.80;;;;;;;4.09;95.14;100622.26;104055;1276;69424;-66
2023/04/02 08:55:28;;;;;;;6.80;3.10;;;;;;;4.17;94.70;100623.75;103199;1278;72452;-62
2023/04/02 08:58:48;;;;;;;;;;;;;;;;;;;;;
2023/04/02 09:10:13;;;;;;;;;;;;;;;;;;;;;
2023/04/02 09:13:45;;;;;;;6.40;2.60;;;;;;;4.64;94.30;100639.46;104607;1263;69322;-62
2023/04/02 09:17:13;;;;;;;;;;;;;;;;;;;;;
2023/04/02 09:21:16;;;;;;;5.50;2.80;;;;;;;4.73;93.53;100651.48;104420;1274;75882;-62
2023/04/02 09:24:25;;;;;;;6.80;3.50;;;;;;;4.67;92.77;100652.24;99856;1279;5445998;-66
2023/04/02 09:28:06;;;;;;;6.50;3.60;;;;;;;4.68;92.83;100660.88;103856;1280;69228;-63
2023/04/02 09:31:52;;;;;;;5.60;2.80;;;;;;;4.67;92.67;100665.40;103908;1281;69175;-61
2023/04/02 09:35:51;;;;;;;4.30;2.40;;;;;;;4.65;92.42;100669.92;102962;1289;71496;-61
2023/04/02 09:39:25;;;;;;;6.10;3.00;;;;;;;4.65;92.88;100675.81;102239;1293;83322;-60
2023/04/02 09:42:57;;;;;;;;;;;;;;;;;;;;;
2023/04/02 09:46:45;;;;;;;;;;;;;;;;;;;;;
2023/04/02 09:49:59;;;;;;;;;;;;;;;;;;;;;
2023/04/02 09:53:47;;;;;;;6.70;3.20;;;;;;;4.95;91.97;100708.42;102312;1299;73027;-62
2023/04/02 09:57:38;;;;;;;;;;;;;;;;;;;;;
2023/04/02 10:01:23;;;;;;;8.40;3.00;;;;;;;5.17;91.65;100718.11;102242;1289;73095;-61
2023/04/02 10:04:44;;;;;;;5.80;2.80;;;;;;;5.17;91.26;100723.64;102294;1295;69431;-63
2023/04/02 10:08:51;;;;;;;9.30;4.30;;;;;;;5.14;91.28;100728.86;102474;1290;69247;-62
2023/04/02 10:12:06;;;;;;;8.10;2.80;;;;;;;5.13;91.06;100734.42;102442;1286;72333;-61
2023/04/02 10:15:42;;;;;;;4.30;2.40;;;;;;;5.09;90.83;100738.80;102993;1280;83381;-61
2023/04/02 10:19:19;;;;;;;;;;;;;;;;;;;;;
2023/04/02 10:22:38;;;;;;;7.80;4.30;;;;;;;5.00;90.74;100744.93;103068;1288;69304;-63
2023/04/02 10:26:19;;;;;;;6.00;2.50;;;;;;;5.02;91.09;100749.08;102845;1289;69242;-62
2023/04/02 10:30:09;;;;;;;6.50;3.20;;;;;;;5.05;91.07;100753.89;103730;1278;72392;-67
2023/04/02 10:34:00;;;;;;;7.10;3.40;;;;;;;5.05;90.36;100761.35;102736;1282;82662;-65
2023/04/02 10:37:55;;;;;;;6.30;3.10;;;;;;;5.07;90.39;100767.22;102095;1298;73509;-63
2023/04/02 10:41:13;;;;;;;6.80;3.60;;;;;;;5.09;90.78;100772.05;101258;1305;69225;-64
2023/04/02 10:44:45;;;;;;;;;;;;;;;;;;;;;
2023/04/02 10:48:38;;;;;;;;;;;;;;;;;;;;;
2023/04/02 10:52:13;;;;;;;;;;;;;;;;;;;;;
2023/04/02 10:56:07;;;;;;;10.60;5.00;;;;;;;4.96;89.94;100786.35;103315;1284;69365;-61
2023/04/02 10:59:56;;;;;;;;;;;;;;;;;;;;;
2023/04/02 11:03:51;;;;;;;;;;;;;;;;;;;;;
2023/04/02 11:11:00;;;;;;;9.90;5.10;;;;;;;5.21;89.93;100800.02;101531;1305;69172;-62
2023/04/02 11:14:42;;;;;;;;;;;;;;;;;;;;;
2023/04/02 11:18:35;;;;;;;13.30;6.60;;;;;;;5.56;90.28;100804.02;101861;1291;601249;-62
2023/04/02 11:22:10;;;;;;;8.80;4.50;;;;;;;5.57;89.46;100808.52;104691;1266;69134;-62
2023/04/02 11:25:41;;;;;;;7.10;3.60;;;;;;;5.62;89.26;100810.73;104324;1272;69144;-63
2023/04/02 11:29:17;;;;;;;8.20;3.90;;;;;;;5.57;88.63;100814.92;104295;1275;70952;-66
2023/04/02 11:33:23;;;;;;;5.90;2.90;;;;;;;5.57;88.84;100817.88;99875;1281;5453107;-65
2023/04/02 11:37:28;;;;;;;7.60;3.10;;;;;;;5.60;88.72;100821.48;103260;1286;69630;-63
2023/04/02 11:40:40;;;;;;;6.10;3.20;;;;;;;5.65;88.37;100828.38;102618;1290;69444;-64
2023/04/02 11:44:15;;;;;;;6.40;3.10;;;;;;;5.65;88.30;100828.54;102368;1290;73265;-62
2023/04/02 11:47:45;;;;;;;7.70;3.90;;;;;;;5.69;88.24;100827.65;101898;1296;81826;-64
2023/04/02 11:51:19;;;;;;;6.90;4.30;;;;;;;5.77;88.36;100833.45;101023;1308;74747;-63
2023/04/02 11:54:33;;;;;;;3.60;2.40;;;;;;;5.84;88.29;100840.14;100216;1316;69364;-65
2023/04/02 11:58:09;;;;;;;8.40;3.00;;;;;;;5.90;88.52;100845.63;100670;1311;69474;-62
2023/04/02 12:02:13;;;;;;;;;;;;;;;;;;;;;
2023/04/02 12:06:12;;;;;;;6.50;3.70;;;;;;;6.00;87.83;100850.40;105082;1263;69249;-62
2023/04/02 12:10:04;;;;;;;8.50;4.50;;;;;;;5.99;87.59;100856.67;105054;1270;69207;-61
2023/04/02 12:13:59;;;;;;;11.10;6.20;;;;;;;5.98;87.76;100858.41;104387;1273;72396;-62
2023/04/02 12:17:20;;;;;;;7.70;4.10;;;;;;;6.00;87.86;100863.25;99862;1277;83564;-63
2023/04/02 12:24:15;;;;;;;;;;;;;;;;;;;;;
2023/04/02 12:27:55;;;;;;;;;;;;;;;;;;;;;
2023/04/02 12:31:28;;;;;;;7.60;3.50;;;;;;;6.11;87.44;100878.92;103379;1283;83565;-61
2023/04/02 12:34:33;;;;;;;;;;;;;;;;;;;;;
2023/04/02 12:37:51;;;;;;;7.50;3.70;;;;;;;5.96;87.01;100878.73;102435;1289;600224;-62
2023/04/02 12:41:06;;;;;;;7.50;4.00;;;;;;;5.86;87.11;100882.96;104735;1264;69194;-61
2023/04/02 12:44:20;;;;;;;6.40;3.10;;;;;;;5.78;87.04;100887.20;104809;1270;69196;-62
2023/04/02 12:47:27;;;;;;;6.10;3.40;;;;;;;5.70;86.91;100892.65;104809;1269;71572;-62
2023/04/02 12:50:32;;;;;;;7.20;3.70;;;;;;;5.66;86.97;100894.43;104754;1269;83394;-63
2023/04/02 12:53:52;;;;;;;8.30;3.90;;;;;;;5.69;87.45;100892.48;104623;1266;71877;-65
2023/04/02 12:57:06;;;;;;;7.30;3.00;;;;;;;5.72;87.47;100894.52;104787;1264;69121;-63
2023/04/02 13:00:05;;;;;;;6.40;3.10;;;;;;;5.72;87.12;100895.06;104830;1266;69223;-64
2023/04/02 13:03:38;;;;;;;4.50;2.40;;;;;;;5.74;87.31;100896.95;104856;1264;70834;-61
2023/04/02 13:06:46;;;;;;;6.80;3.20;;;;;;;5.80;87.68;100898.63;104384;1275;83549;-62
2023/04/02 13:10:09;;;;;;;6.10;3.00;;;;;;;5.85;87.53;100903.79;103891;1272;73813;-62
2023/04/02 13:13:11;;;;;;;7.70;4.10;;;;;;;5.89;87.76;100903.41;104198;1273;69220;-62
2023/04/02 13:16:19;;;;;;;6.20;2.90;;;;;;;5.92;87.69;100905.45;104197;1276;69229;-65
2023/04/02 13:19:09;;;;;;;6.30;3.50;;;;;;;5.96;87.55;100909.09;104420;1270;73235;-66
2023/04/02 13:22:10;;;;;;;8.80;4.90;;;;;;;6.01;87.64;100912.67;104336;1273;82604;-63
2023/04/02 13:24:55;;;;;;;11.90;5.00;;;;;;;6.10;87.61;100915.02;104330;1270;72803;-64
2023/04/02 13:27:37;;;;;;;8.50;4.20;;;;;;;6.14;87.34;100915.66;104276;1270;69333;-64
2023/04/02 13:31:01;;;;;;;8.60;3.90;;;;;;;6.19;86.88;100912.66;104284;1275;69426;-65
2023/04/02 13:33:58;;;;;;;11.30;5.70;;;;;;;6.23;86.98;100918.69;104168;1270;74128;-63
2023/04/02 13:36:47;;;;;;;8.00;4.50;;;;;;;6.28;86.65;100922.46;104308;1272;83237;-64
2023/04/02 13:39:30;;;;;;;10.60;5.20;;;;;;;6.29;86.19;100924.36;104240;1276;73829;-64
2023/04/02 13:42:33;;;;;;;13.00;5.60;;;;;;;6.28;86.17;100921.77;104864;1266;69203;-64
2023/04/02 13:45:45;;;;;;;13.40;6.70;;;;;;;6.28;85.87;100925.40;104836;1265;69176;-63
2023/04/02 13:48:33;;;;;;;11.90;5.70;;;;;;;6.28;85.73;100928.36;104831;1264;72567;-65
2023/04/02 13:51:36;;;;;;;11.70;6.90;;;;;;;6.26;85.51;100932.20;104863;1264;81956;-68
2023/04/02 13:55:07;;;;;;;9.60;5.30;;;;;;;6.24;85.43;100933.61;104773;1263;72782;-64
2023/04/02 13:58:17;;;;;;;6.80;4.40;;;;;;;6.24;85.38;100935.68;104391;1275;69363;-62
2023/04/02 14:01:22;;;;;;;9.80;4.40;;;;;;;6.23;85.24;100937.08;104394;1269;69203;-63
2023/04/02 14:04:27;;;;;;;7.10;4.00;;;;;;;6.21;85.11;100942.33;104789;1263;72991;-65
2023/04/02 14:07:38;;;;;;;10.30;3.80;;;;;;;6.17;85.06;100945.99;104751;1267;83949;-63
2023/04/02 14:11:25;;;;;;;;;;;;;;;;;;;;;
2023/04/02 14:14:48;;;;;;;6.40;3.20;;;;;;;6.10;84.67;100948.67;103976;1277;69299;-62
2023/04/02 14:18:24;;;;;;;9.50;4.20;;;;;;;6.07;84.94;100952.88;102712;1289;69269;-62
2023/04/02 14:22:22;;;;;;;;;;;;;;;;;;;;;
2023/04/02 14:25:47;;;;;;;13.70;6.30;;;;;;;5.96;84.51;100965.64;101413;1307;84618;-64
2023/04/02 14:29:14;;;;;;;7.20;3.80;;;;;;;5.93;84.55;100973.63;100147;1316;73080;-64
2023/04/02 14:37:10;;;;;;;10.90;4.80;;;;;;;5.91;83.98;100985.26;104071;1272;69108;-62
2023/04/02 14:40:55;;;;;;;;;;;;;;;;;;;;;
2023/04/02 14:44:46;;;;;;;8.90;5.60;;;;;;;5.90;83.94;100994.45;102953;1284;71502;-62
2023/04/02 14:48:36;;;;;;;12.80;7.60;;;;;;;5.92;83.58;100999.45;98592;1293;82712;-61
2023/04/02 14:52:41;;;;;;;17.80;14.30;;;;;;;5.94;83.72;101000.87;101848;1301;69392;-62
2023/04/02 14:56:21;;;;;;;12.80;7.60;;;;;;;5.91;83.56;101000.69;100480;1316;69511;-61
2023/04/02 15:00:12;;;;;;;11.30;6.60;;;;;;;5.89;83.41;101004.86;102445;1290;600344;-62
2023/04/02 15:03:48;;;;;;;13.20;6.70;;;;;;;5.83;83.17;101006.82;103576;1284;69402;-64
2023/04/02 15:07:07;;;;;;;8.60;4.50;;;;;;;5.80;83.27;101005.80;102643;1289;69364;-64
2023/04/02 15:10:25;;;;;;;12.90;6.60;;;;;;;5.78;83.32;101010.85;103109;1283;71512;-65
2023/04/02 15:14:07;;;;;;;;;;;;;;;;;;;;;
2023/04/02 15:17:51;;;;;;;10.50;5.60;;;;;;;5.79;82.94;101019.52;102086;1294;600545;-61
2023/04/02 15:21:44;;;;;;;9.00;4.60;;;;;;;5.74;82.92;101024.06;104650;1267;69566;-65
2023/04/02 15:25:11;;;;;;;12.20;6.80;;;;;;;5.71;82.72;101030.33;104608;1269;69203;-66
2023/04/02 15:29:21;;;;;;;16.40;7.50;;;;;;;5.68;82.72;101037.09;103451;1283;71234;-62
2023/04/02 15:32:50;;;;;;;14.30;6.80;;;;;;;5.65;82.64;101038.50;101023;1285;81781;-62
2023/04/02 15:36:31;;;;;;;;;;;;;;;;;;;;;
2023/04/02 15:40:24;;;;;;;;;;;;;;;;;;;;;
2023/04/02 15:48:19;;;;;;;;;;;;;;;;;;;;;
2023/04/02 16:00:07;;;;;;;13.10;6.40;;;;;;;5.57;82.50;101063.70;102022;1291;603358;-61
2023/04/02 16:04:01;;;;;;;12.10;5.70;;;;;;;5.55;82.44;101067.18;104180;1276;69226;-65
2023/04/02 16:07:46;;;;;;;;;;;;;;;;;;;;;
2023/04/02 16:11:38;;;;;;;;;;;;;;;;;;;;;
2023/04/02 16:15:23;;;;;;;20.30;9.50;;;;;;;5.59;82.24;101075.30;98446;1295;83290;-63
2023/04/02 16:22:55;;;;;;;;;;;;;;;;;;;;;
2023/04/02 16:26:52;;;;;;;;;;;;;;;;;;;;;
2023/04/02 16:34:29;;;;;;;6.00;2.90;;;;;;;5.61;81.41;101095.92;102975;1283;72815;-65
2023/04/02 16:47:01;;;;;;;10.40;5.50;;;;;;;5.63;81.24;101110.84;102367;1291;601054;-63
2023/04/02 16:50:39;;;;;;;12.10;6.50;;;;;;;5.60;81.43;101113.95;104226;1276;69156;-65
2023/04/02 16:54:29;;;;;;;17.20;7.90;;;;;;;5.57;81.40;101116.57;104230;1276;69272;-63
2023/04/02 16:58:15;;;;;;;;;;;;;;;;;;;;;
2023/04/02 17:01:59;;;;;;;16.30;7.00;;;;;;;5.53;81.55;101125.27;98956;1290;83045;-64
2023/04/02 17:06:10;;;;;;;16.40;7.70;;;;;;;5.48;81.14;101127.71;102430;1297;69294;-66
2023/04/02 17:10:00;;;;;;;13.40;5.80;;;;;;;5.45;81.28;101135.16;101577;1302;69170;-65
2023/04/02 17:13:39;;;;;;;;;;;;;;;;;;;;;
2023/04/02 17:17:15;;;;;;;;;;;;;;;;;;;;;
2023/04/02 17:21:13;;;;;;;28.10;14.50;;;;;;;5.41;81.23;101149.23;101723;1294;604070;-64
2023/04/02 17:28:51;;;;;;;17.60;11.10;;;;;;;5.33;81.28;101164.86;103501;1285;69305;-64
2023/04/02 17:32:19;;;;;;;;;;;;;;;;;;;;;
2023/04/02 17:36:07;;;;;;;23.00;15.60;;;;;;;5.32;81.55;101172.48;103315;1281;82552;-63
2023/04/02 17:39:50;;;;;;;33.30;21.80;;;;;;;5.28;81.50;101177.35;103306;1280;72454;-62
2023/04/02 17:43:49;;;;;;;;;;;;;;;;;;;;;
2023/04/02 17:48:11;;;;;;;;;;;;;;;;;;;;;
2023/04/02 17:51:30;;;;;;;16.20;12.00;;;;;;;5.17;81.58;101191.77;100777;1314;72476;-63
2023/04/02 17:56:06;;;;;;;12.70;6.80;;;;;;;5.17;81.82;101196.09;101938;1292;604441;-63
2023/04/02 17:59:37;;;;;;;22.20;10.10;;;;;;;5.13;81.95;101202.68;103628;1279;69120;-62
2023/04/02 18:03:37;;;;;;;;;;;;;;;;;;;;;
2023/04/02 18:07:15;;;;;;;;;;;;;;;;;;;;;
2023/04/02 18:15:50;;;;;;;35.20;15.80;;;;;;;4.95;81.87;101224.70;101653;1301;601097;-64
2023/04/02 18:19:44;;;;;;;30.20;14.20;;;;;;;4.89;81.79;101230.95;103807;1281;69254;-61
2023/04/02 18:23:49;;;;;;;;;;;;;;;;;;;;;
2023/04/02 18:43:23;;;;;;;85.30;35.40;;;;;;;4.84;82.25;101273.20;102230;1291;602138;-63
2023/04/02 18:47:25;;;;;;;33.60;17.20;;;;;;;4.79;82.27;101276.66;103543;1282;69255;-62
2023/04/02 18:51:00;;;;;;;54.80;22.80;;;;;;;4.77;82.47;101281.50;102972;1290;69401;-61
2023/04/02 18:54:49;;;;;;;22.10;10.90;;;;;;;4.73;82.45;101289.64;102777;1290;71515;-62
2023/04/02 18:58:18;;;;;;;47.10;18.50;;;;;;;4.67;82.49;101294.98;99372;1287;84051;-63
2023/04/02 19:02:05;;;;;;;;;;;;;;;;;;;;;
2023/04/02 19:06:08;;;;;;;;;;;;;;;;;;;;;
2023/04/02 19:18:07;;;;;;;9.50;3.70;;;;;;;4.34;81.76;101331.09;101689;1302;74416;-62
2023/04/02 19:25:29;;;;;;;14.60;6.10;;;;;;;4.21;80.53;101341.59;102111;1293;603360;-61
2023/04/02 19:29:37;;;;;;;11.40;3.90;;;;;;;4.11;79.79;101350.70;104373;1273;69246;-62
2023/04/02 19:41:24;;;;;;;;;;;;;;;;;;;;;
2023/04/02 19:45:12;;;;;;;6.10;2.00;;;;;;;3.71;78.30;101373.65;102158;1295;601175;-64
2023/04/02 19:48:58;;;;;;;4.90;1.60;;;;;;;3.59;78.01;101375.13;104629;1269;69212;-60
2023/04/02 19:52:42;;;;;;;4.90;2.10;;;;;;;3.49;77.68;101380.59;104801;1264;69133;-60
2023/04/02 19:56:20;;;;;;;4.30;1.60;;;;;;;3.41;77.47;101393.30;104767;1264;72580;-60
2023/04/02 20:00:00;;;;;;;;;;;;;;;;;;;;;
2023/04/02 20:03:51;;;;;;;6.10;2.00;;;;;;;3.21;77.43;101399.35;104743;1266;69333;-61
2023/04/02 20:07:39;;;;;;;6.90;1.60;;;;;;;3.12;77.41;101403.58;104890;1261;69093;-65
2023/04/02 20:11:11;;;;;;;5.60;1.70;;;;;;;3.04;77.13;101407.65;104925;1266;71306;-61
2023/04/02 20:15:01;;;;;;;3.30;1.50;;;;;;;2.97;77.26;101414.48;104718;1261;83474;-61
2023/04/02 20:18:25;;;;;;;;;;;;;;;;;;;;;
2023/04/02 20:25:57;;;;;;;;;;;;;;;;;;;;;
2023/04/02 20:29:47;;;;;;;5.00;1.60;;;;;;;2.68;77.02;101441.95;105283;1259;72062;-64
2023/04/02 20:33:19;;;;;;;3.70;1.40;;;;;;;2.61;76.94;101446.70;105188;1256;82592;-62
2023/04/02 20:36:44;;;;;;;;;;;;;;;;;;;;;
2023/04/02 20:40:35;;;;;;;4.00;1.60;;;;;;;2.46;76.63;101461.00;105124;1256;69182;-62
2023/04/02 20:44:25;;;;;;;5.00;1.70;;;;;;;2.40;76.47;101471.28;105191;1256;69178;-61
2023/04/02 20:48:14;;;;;;;6.10;1.70;;;;;;;2.34;76.51;101478.09;105061;1258;73441;-62
2023/04/02 20:51:35;;;;;;;;;;;;;;;;;;;;;
2023/04/02 20:55:25;;;;;;;11.40;2.80;;;;;;;2.26;76.81;101484.70;105106;1258;73766;-63
2023/04/02 20:59:00;;;;;;;5.70;2.40;;;;;;;2.21;76.83;101487.39;105012;1260;69179;-64
2023/04/02 21:02:42;;;;;;;5.80;2.30;;;;;;;2.17;77.08;101485.79;105077;1260;69189;-60
2023/04/02 21:06:31;;;;;;;9.80;3.70;;;;;;;2.12;76.79;101489.85;105112;1260;72392;-62
2023/04/02 21:10:20;;;;;;;8.40;2.50;;;;;;;2.07;76.74;101490.80;105110;1260;83452;-61
2023/04/02 21:14:10;;;;;;;6.50;2.50;;;;;;;2.01;76.63;101494.50;105103;1257;72815;-65
2023/04/02 21:17:59;;;;;;;5.80;2.00;;;;;;;1.94;76.56;101494.90;105056;1257;69103;-63
2023/04/02 21:21:48;;;;;;;7.20;2.50;;;;;;;1.88;76.56;101499.46;105074;1257;69148;-62
2023/04/02 21:25:37;;;;;;;5.20;2.30;;;;;;;1.83;76.60;101496.97;105105;1257;73158;-61
2023/04/02 21:29:21;;;;;;;16.40;4.90;;;;;;;1.76;76.51;101499.45;105020;1257;83386;-60
2023/04/02 21:33:09;;;;;;;11.60;4.40;;;;;;;1.70;76.34;101501.59;105164;1256;73687;-61
2023/04/02 21:36:46;;;;;;;9.60;3.30;;;;;;;1.63;76.56;101501.46;105112;1257;69108;-62
2023/04/02 21:40:17;;;;;;;6.10;2.10;;;;;;;1.57;76.41;101504.47;104990;1260;69199;-61
2023/04/02 21:43:57;;;;;;;7.90;2.10;;;;;;;1.51;76.26;101512.11;105136;1260;72321;-60
2023/04/02 21:47:45;;;;;;;5.90;2.00;;;;;;;1.46;76.27;101510.79;105188;1257;86599;-63
2023/04/02 21:51:35;;;;;;;5.90;2.00;;;;;;;1.40;76.37;101514.50;104933;1257;73930;-62
2023/04/02 21:55:24;;;;;;;4.30;2.00;;;;;;;1.35;76.38;101519.73;105147;1257;69091;-61
2023/04/02 21:59:13;;;;;;;7.70;2.30;;;;;;;1.30;76.52;101529.63;105119;1260;69208;-60
2023/04/02 22:03:02;;;;;;;8.30;3.00;;;;;;;1.25;76.66;101539.36;105164;1257;73188;-61
2023/04/02 22:06:54;;;;;;;13.30;3.90;;;;;;;1.24;76.66;101541.22;105051;1260;83428;-61
2023/04/02 22:14:32;;;;;;;9.00;2.70;;;;;;;1.17;76.59;101552.97;105034;1260;69129;-60
2023/04/02 22:18:22;;;;;;;10.70;2.80;;;;;;;1.13;76.73;101550.64;105083;1258;69177;-62
2023/04/02 22:22:11;;;;;;;9.20;3.00;;;;;;;1.07;76.66;101553.28;105090;1260;72283;-60
2023/04/02 22:26:00;;;;;;;7.80;3.30;;;;;;;1.02;76.72;101564.19;105343;1254;83582;-61
2023/04/02 22:29:41;;;;;;;;;;;;;;;;;;;;;
2023/04/02 22:33:32;;;;;;;8.70;2.90;;;;;;;0.94;76.73;101573.34;105483;1254;69191;-60
2023/04/02 22:37:17;;;;;;;8.30;3.20;;;;;;;0.90;76.86;101577.20;105353;1257;69308;-61
2023/04/02 22:40:57;;;;;;;;;;;;;;;;;;;;;
2023/04/02 22:44:55;;;;;;;9.20;3.00;;;;;;;0.79;77.10;101575.08;105385;1254;83840;-60
2023/04/02 22:48:45;;;;;;;6.20;2.50;;;;;;;0.75;77.14;101576.52;105417;1256;72378;-63
2023/04/02 22:52:15;;;;;;;;;;;;;;;;;;;;;
2023/04/02 23:03:45;;;;;;;5.60;2.30;;;;;;;0.75;77.52;101586.86;104769;1259;82724;-64
2023/04/02 23:07:34;;;;;;;6.20;2.30;;;;;;;0.76;77.41;101588.95;104865;1259;73119;-61
2023/04/02 23:11:15;;;;;;;;;;;;;;;;;;;;;
2023/04/02 23:15:05;;;;;;;6.60;2.10;;;;;;;0.76;77.52;101595.13;104955;1259;69411;-60
2023/04/02 23:22:44;;;;;;;6.50;2.30;;;;;;;0.79;77.64;101598.46;104940;1262;83805;-61
2023/04/02 23:34:20;;;;;;;4.20;1.80;;;;;;;0.82;77.62;101605.74;104346;1270;69313;-61
2023/04/02 23:38:21;;;;;;;;;;;;;;;;;;;;;
2023/04/02 23:41:59;;;;;;;11.30;2.60;;;;;;;0.79;77.69;101607.59;104676;1265;83864;-61
2023/04/02 23:45:40;;;;;;;;;;;;;;;;;;;;;
